createdAt,value
2019-03-11T00:00:50.158Z,3.50
2019-03-11T00:02:50.235Z,3.47
2019-03-11T00:04:50.580Z,3.43
2019-03-11T00:06:50.783Z,3.41
2019-03-11T00:08:49.951Z,3.34
2019-03-11T00:10:50.122Z,3.32
2019-03-11T00:12:50.256Z,3.31
2019-03-11T00:14:50.321Z,3.32
2019-03-11T00:16:50.622Z,3.33
2019-03-11T00:18:50.779Z,3.38
2019-03-11T00:20:49.871Z,3.41
2019-03-11T00:22:49.988Z,3.45
2019-03-11T00:24:50.091Z,3.48
2019-03-11T00:26:50.208Z,3.52
2019-03-11T00:28:50.369Z,3.53
2019-03-11T00:30:50.515Z,3.57
2019-03-11T00:32:50.596Z,3.63
2019-03-11T00:34:50.047Z,3.62
2019-03-11T00:36:50.263Z,3.62
2019-03-11T00:38:50.321Z,3.62
2019-03-11T00:40:50.382Z,3.62
2019-03-11T00:42:50.533Z,3.66
2019-03-11T00:44:50.651Z,3.67
2019-03-11T00:46:50.854Z,3.22
2019-03-11T00:48:50.011Z,2.83
2019-03-11T00:50:50.187Z,2.35
2019-03-11T00:52:50.272Z,1.82
2019-03-11T00:54:50.326Z,1.73
2019-03-11T00:56:50.544Z,1.55
2019-03-11T00:58:50.654Z,1.50
2019-03-11T01:00:50.775Z,1.43
2019-03-11T01:02:49.910Z,1.41
2019-03-11T01:04:50.184Z,1.37
2019-03-11T01:06:50.324Z,1.37
2019-03-11T01:08:50.484Z,1.36
2019-03-11T01:10:50.638Z,1.39
2019-03-11T01:12:50.715Z,1.36
2019-03-11T01:14:50.814Z,1.32
2019-03-11T01:16:49.967Z,1.27
2019-03-11T01:18:50.061Z,1.17
2019-03-11T01:20:50.174Z,1.10
2019-03-11T01:22:50.236Z,1.09
2019-03-11T01:24:50.298Z,1.06
2019-03-11T01:26:50.514Z,1.02
2019-03-11T01:28:50.629Z,0.97
2019-03-11T01:30:50.676Z,0.98
2019-03-11T01:32:50.766Z,0.98
2019-03-11T01:34:50.039Z,0.94
2019-03-11T01:36:50.287Z,0.88
2019-03-11T01:38:50.406Z,0.86
2019-03-11T01:40:50.537Z,0.80
2019-03-11T01:42:52.447Z,0.80
2019-03-11T01:44:50.530Z,0.66
2019-03-11T01:46:50.849Z,0.60
2019-03-11T01:48:49.985Z,0.56
2019-03-11T01:50:50.072Z,0.52
2019-03-11T01:52:50.263Z,0.47
2019-03-11T01:54:50.332Z,0.38
2019-03-11T01:56:50.526Z,0.36
2019-03-11T01:58:50.658Z,0.42
2019-03-11T02:00:50.813Z,0.49
2019-03-11T02:02:50.079Z,0.59
2019-03-11T02:04:50.530Z,0.64
2019-03-11T02:06:50.697Z,0.67
2019-03-11T02:08:50.784Z,0.68
2019-03-11T02:10:49.922Z,0.67
2019-03-11T02:12:50.067Z,0.65
2019-03-11T02:14:50.202Z,0.61
2019-03-11T02:16:50.388Z,0.56
2019-03-11T02:18:50.587Z,0.52
2019-03-11T02:20:50.756Z,0.60
2019-03-11T02:22:49.986Z,0.76
2019-03-11T02:24:50.169Z,0.80
2019-03-11T02:26:50.604Z,1.03
2019-03-11T02:28:50.803Z,1.09
2019-03-11T02:30:49.980Z,1.21
2019-03-11T02:32:50.197Z,1.29
2019-03-11T02:34:50.714Z,1.42
2019-03-11T02:36:49.958Z,1.42
2019-03-11T02:38:50.119Z,1.62
2019-03-11T02:40:50.278Z,1.62
2019-03-11T02:42:50.468Z,1.77
2019-03-11T02:44:50.638Z,1.81
2019-03-11T02:46:49.888Z,1.84
2019-03-11T02:48:50.004Z,1.84
2019-03-11T02:50:50.143Z,2.0
2019-03-11T02:52:50.288Z,2.0
2019-03-11T02:54:50.455Z,2.1
2019-03-11T02:56:50.693Z,2.1
2019-03-11T02:58:50.105Z,2.20
2019-03-11T03:00:50.464Z,2.2
2019-03-11T03:02:50.704Z,2.2
2019-03-11T03:04:50.120Z,2.3
2019-03-11T03:06:50.280Z,2.4
2019-03-11T03:08:50.226Z,2.4
2019-03-11T03:10:50.424Z,2.4
2019-03-11T03:12:50.644Z,2.5
2019-03-11T03:14:50.843Z,2.6
2019-03-11T03:16:50.161Z,2.7
2019-03-11T03:18:50.261Z,2.7
2019-03-11T03:20:50.439Z,2.7
2019-03-11T03:22:50.559Z,2.8
2019-03-11T03:24:50.759Z,2.8
2019-03-11T03:26:50.005Z,2.9
2019-03-11T03:28:50.136Z,2.89
2019-03-11T03:30:50.429Z,2.88
2019-03-11T03:32:50.826Z,2.97
2019-03-11T03:34:50.182Z,2.97
2019-03-11T03:36:50.436Z,3.0
2019-03-11T03:38:50.579Z,3.1
2019-03-11T03:40:50.673Z,3.19
2019-03-11T03:42:51.709Z,3.2
2019-03-11T03:44:50.019Z,3.29
2019-03-11T03:46:50.353Z,3.3
2019-03-11T03:48:51.926Z,3.38
2019-03-11T03:50:50.275Z,3.42
2019-03-11T03:52:50.494Z,3.43
2019-03-11T03:54:50.611Z,3.42
2019-03-11T03:56:54.906Z,3.44
2019-03-11T03:58:50.169Z,3.43
2019-03-11T04:00:50.409Z,3.43
2019-03-11T04:02:50.594Z,3.44
2019-03-11T04:04:50.046Z,3.43
2019-03-11T04:06:50.449Z,3.39
2019-03-11T04:08:50.553Z,3.35
2019-03-11T04:10:50.690Z,3.33
2019-03-11T04:12:50.849Z,3.33
2019-03-11T04:14:50.011Z,3.30
2019-03-11T04:16:50.243Z,3.27
2019-03-11T04:18:50.379Z,3.22
2019-03-11T04:20:50.525Z,3.20
2019-03-11T04:22:50.675Z,3.22
2019-03-11T04:24:50.800Z,3.23
2019-03-11T04:26:50.043Z,3.28
2019-03-11T04:28:50.219Z,3.30
2019-03-11T04:30:50.349Z,3.31
2019-03-11T04:32:50.455Z,3.33
2019-03-11T04:34:50.804Z,3.39
2019-03-11T04:36:50.123Z,3.40
2019-03-11T04:38:50.236Z,3.42
2019-03-11T04:40:50.303Z,3.42
2019-03-11T04:42:50.405Z,3.40
2019-03-11T04:44:50.487Z,3.39
2019-03-11T04:46:50.734Z,3.41
2019-03-11T04:48:50.808Z,3.46
2019-03-11T04:50:49.887Z,3.47
2019-03-11T04:52:50.110Z,3.49
2019-03-11T04:54:50.197Z,3.50
2019-03-11T04:56:50.388Z,3.52
2019-03-11T04:58:50.507Z,3.55
2019-03-11T05:00:50.593Z,3.54
2019-03-11T05:02:50.748Z,3.57
2019-03-11T05:04:50.021Z,3.57
2019-03-11T05:06:50.186Z,3.59
2019-03-11T05:08:50.376Z,3.60
2019-03-11T05:10:50.471Z,3.59
2019-03-11T05:12:50.600Z,3.59
2019-03-11T05:14:50.678Z,3.61
2019-03-11T05:16:49.870Z,3.64
2019-03-11T05:18:50.009Z,3.66
2019-03-11T05:20:50.114Z,3.66
2019-03-11T05:22:50.180Z,3.71
2019-03-11T05:24:50.310Z,3.72
2019-03-11T05:26:49.927Z,3.74
2019-03-11T05:28:50.080Z,3.71
2019-03-11T05:30:50.213Z,3.62
2019-03-11T05:32:50.334Z,3.55
2019-03-11T05:34:50.740Z,3.43
2019-03-11T05:36:49.905Z,3.37
2019-03-11T05:38:50.072Z,3.22
2019-03-11T05:40:50.447Z,3.11
2019-03-11T05:42:50.586Z,3.11
2019-03-11T05:44:50.660Z,3.03
2019-03-11T05:46:50.855Z,3.02
2019-03-11T05:48:49.982Z,2.96
2019-03-11T05:50:50.129Z,2.92
2019-03-11T05:52:50.220Z,2.93
2019-03-11T05:54:50.356Z,2.93
2019-03-11T05:56:50.598Z,2.93
2019-03-11T05:58:50.696Z,3.00
2019-03-11T06:00:50.800Z,3.04
2019-03-11T06:02:49.891Z,3.07
2019-03-11T06:04:50.321Z,3.14
2019-03-11T06:06:50.549Z,3.21
2019-03-11T06:08:50.670Z,3.25
2019-03-11T06:10:50.768Z,3.27
2019-03-11T06:12:49.916Z,3.34
2019-03-11T06:14:50.053Z,3.40
2019-03-11T06:16:50.223Z,3.45
2019-03-11T06:18:50.366Z,3.47
2019-03-11T06:20:50.425Z,3.52
2019-03-11T06:22:50.520Z,3.57
2019-03-11T06:24:50.675Z,3.64
2019-03-11T06:26:49.874Z,3.66
2019-03-11T06:28:50.003Z,3.71
2019-03-11T06:30:50.103Z,3.74
2019-03-11T06:32:50.211Z,3.74
2019-03-11T06:34:50.552Z,3.66
2019-03-11T06:36:50.385Z,3.66
2019-03-11T06:38:50.497Z,3.60
2019-03-11T06:40:50.604Z,3.58
2019-03-11T06:42:50.684Z,3.55
2019-03-11T06:44:50.775Z,3.54
2019-03-11T06:46:49.913Z,3.53
2019-03-11T06:48:50.029Z,3.52
2019-03-11T06:50:50.165Z,3.51
2019-03-11T06:52:50.268Z,3.50
2019-03-11T06:54:50.415Z,3.48
2019-03-11T06:56:50.636Z,3.39
2019-03-11T06:58:50.787Z,3.15
2019-03-11T07:00:50.861Z,3.09
2019-03-11T07:02:50.069Z,3.03
2019-03-11T07:04:50.519Z,3.05
2019-03-11T07:06:50.812Z,3.07
2019-03-11T07:08:49.891Z,3.08
2019-03-11T07:10:50.031Z,3.07
2019-03-11T07:12:50.220Z,3.03
2019-03-11T07:14:50.278Z,2.97
2019-03-11T07:16:50.425Z,2.89
2019-03-11T07:18:50.557Z,2.79
2019-03-11T07:20:50.766Z,2.74
2019-03-11T07:22:49.881Z,2.65
2019-03-11T07:24:49.981Z,2.61
2019-03-11T07:26:50.214Z,2.60
2019-03-11T07:28:50.323Z,2.60
2019-03-11T07:30:50.428Z,2.59
2019-03-11T07:32:50.553Z,2.56
2019-03-11T07:34:49.872Z,2.48
2019-03-11T07:36:50.061Z,2.44
2019-03-11T07:38:50.194Z,2.46
2019-03-11T07:40:50.309Z,2.45
2019-03-11T07:42:50.455Z,2.45
2019-03-11T07:44:50.587Z,2.48
2019-03-11T07:46:49.876Z,2.52
2019-03-11T07:48:50.102Z,2.59
2019-03-11T07:50:50.263Z,2.53
2019-03-11T07:52:51.095Z,2.53
2019-03-11T07:54:50.200Z,2.48
2019-03-11T07:56:50.341Z,2.45
2019-03-11T07:58:50.452Z,2.42
2019-03-11T08:00:54.801Z,2.42
2019-03-11T08:02:49.938Z,2.45
2019-03-11T08:04:50.524Z,2.53
2019-03-11T08:06:50.718Z,2.53
2019-03-11T08:08:50.780Z,2.61
2019-03-11T08:10:49.905Z,2.60
2019-03-11T08:12:50.122Z,2.64
2019-03-11T08:14:50.202Z,2.65
2019-03-11T08:16:50.320Z,2.55
2019-03-11T08:18:50.577Z,2.47
2019-03-11T08:20:50.730Z,2.44
2019-03-11T08:22:50.828Z,2.47
2019-03-11T08:24:49.954Z,2.46
2019-03-11T08:26:50.189Z,2.44
2019-03-11T08:28:50.387Z,2.47
2019-03-11T08:30:50.557Z,2.50
2019-03-11T08:32:50.638Z,2.53
2019-03-11T08:34:50.086Z,2.58
2019-03-11T08:36:50.302Z,2.62
2019-03-11T08:38:50.484Z,2.62
2019-03-11T08:40:50.547Z,2.66
2019-03-11T08:42:50.645Z,2.65
2019-03-11T08:44:50.797Z,2.68
2019-03-11T08:46:50.146Z,2.77
2019-03-11T08:48:50.248Z,2.75
2019-03-11T08:50:50.382Z,2.75
2019-03-11T08:52:50.506Z,2.78
2019-03-11T08:54:50.615Z,2.80
2019-03-11T08:56:50.835Z,2.82
2019-03-11T08:58:49.948Z,2.78
2019-03-11T09:00:50.038Z,2.66
2019-03-11T09:02:50.182Z,2.66
2019-03-11T09:04:50.673Z,2.65
2019-03-11T09:06:50.826Z,2.62
2019-03-11T09:08:49.892Z,2.59
2019-03-11T09:10:50.026Z,2.66
2019-03-11T09:12:50.298Z,2.78
2019-03-11T09:14:50.421Z,2.84
2019-03-11T09:16:50.565Z,2.92
2019-03-11T09:18:50.627Z,2.95
2019-03-11T09:20:50.743Z,3.03
2019-03-11T09:22:50.807Z,3.12
2019-03-11T09:24:49.986Z,3.19
2019-03-11T09:26:50.226Z,3.32
2019-03-11T09:28:50.399Z,3.51
2019-03-11T09:30:50.603Z,4.04
2019-03-11T09:32:50.733Z,4.14
2019-03-11T09:34:50.144Z,4.3
2019-03-11T09:36:50.320Z,4.4
2019-03-11T09:38:50.427Z,4.5
2019-03-11T09:40:50.507Z,4.5
2019-03-11T09:42:50.572Z,4.8
2019-03-11T09:44:50.660Z,4.93
2019-03-11T09:46:50.844Z,5.00
2019-03-11T09:48:49.924Z,4.79
2019-03-11T09:50:50.008Z,4.68
2019-03-11T09:52:50.182Z,4.63
2019-03-11T09:54:50.237Z,4.65
2019-03-11T09:56:50.446Z,4.65
2019-03-11T09:58:50.656Z,4.67
2019-03-11T10:00:50.799Z,4.53
2019-03-11T10:02:54.091Z,4.37
2019-03-11T10:04:50.621Z,4.33
2019-03-11T10:06:49.934Z,4.32
2019-03-11T10:08:50.105Z,4.36
2019-03-11T10:10:50.258Z,4.37
2019-03-11T10:12:50.347Z,4.36
2019-03-11T10:14:50.454Z,4.39
2019-03-11T10:16:50.602Z,4.47
2019-03-11T10:18:50.935Z,4.46
2019-03-11T10:20:50.079Z,4.52
2019-03-11T10:22:50.152Z,4.48
2019-03-11T10:24:50.309Z,4.46
2019-03-11T10:26:50.518Z,4.41
2019-03-11T10:28:50.671Z,4.34
2019-03-11T10:30:50.772Z,4.24
2019-03-11T10:32:49.900Z,4.19
2019-03-11T10:34:50.367Z,4.08
2019-03-11T10:36:50.627Z,4.03
2019-03-11T10:38:50.837Z,3.98
2019-03-11T10:40:49.971Z,4.10
2019-03-11T10:42:50.133Z,4.21
2019-03-11T10:44:50.236Z,4.28
2019-03-11T10:46:50.475Z,4.32
2019-03-11T10:48:50.552Z,4.45
2019-03-11T10:50:51.122Z,4.45
2019-03-11T10:52:50.280Z,4.44
2019-03-11T10:54:50.312Z,4.49
2019-03-11T10:56:50.536Z,4.42
2019-03-11T10:58:50.711Z,4.51
2019-03-11T11:00:50.845Z,4.94
2019-03-11T11:02:50.014Z,5.48
2019-03-11T11:04:50.433Z,5.56
2019-03-11T11:06:50.635Z,5.18
2019-03-11T11:08:50.720Z,5.09
2019-03-11T11:10:50.830Z,5.39
2019-03-11T11:12:49.914Z,5.52
2019-03-11T11:14:49.993Z,5.80
2019-03-11T11:16:50.319Z,6.01
2019-03-11T11:18:50.412Z,6.31
2019-03-11T11:20:50.531Z,6.51
2019-03-11T11:22:50.674Z,6.53
2019-03-11T11:24:49.913Z,6.65
2019-03-11T11:26:50.106Z,6.62
2019-03-11T11:28:50.196Z,6.39
2019-03-11T11:30:50.261Z,6.07
2019-03-11T11:32:50.480Z,5.72
2019-03-11T11:34:50.759Z,5.52
2019-03-11T11:36:50.001Z,5.22
2019-03-11T11:38:50.210Z,4.75
2019-03-11T11:40:50.257Z,4.20
2019-03-11T11:42:50.399Z,4.14
2019-03-11T11:44:50.514Z,4.19
2019-03-11T11:46:50.665Z,4.90
2019-03-11T11:48:50.766Z,5.33
2019-03-11T11:50:50.837Z,5.25
2019-03-11T11:52:49.909Z,5.45
2019-03-11T11:54:49.975Z,5.56
2019-03-11T11:56:50.279Z,5.52
2019-03-11T11:58:50.355Z,5.90
2019-03-11T12:00:50.443Z,6.09
2019-03-11T12:02:50.551Z,6.6
2019-03-11T12:04:49.845Z,6.5
2019-03-11T12:06:50.047Z,6.4
2019-03-11T12:08:50.159Z,6.4
2019-03-11T12:10:50.191Z,6.4
2019-03-11T12:12:50.347Z,6.3
2019-03-11T12:14:50.429Z,6.3
2019-03-11T12:16:50.523Z,6.3
2019-03-11T12:18:50.576Z,6.3
2019-03-11T12:20:50.629Z,6.4
2019-03-11T12:22:50.649Z,6.4
2019-03-11T12:24:50.812Z,6.5
2019-03-11T12:26:50.166Z,6.6
2019-03-11T12:28:50.522Z,6.6
2019-03-11T12:30:50.658Z,6.8
2019-03-11T12:32:50.762Z,7.0
2019-03-11T12:34:50.068Z,7.1
2019-03-11T12:36:50.214Z,7.1
2019-03-11T12:38:50.319Z,6.71
2019-03-11T12:40:50.399Z,5.50
2019-03-11T12:42:50.507Z,5.16
2019-03-11T12:44:50.668Z,5.05
2019-03-11T12:46:50.866Z,5.70
2019-03-11T12:48:49.982Z,6.2
2019-03-11T12:50:50.068Z,6.2
2019-03-11T12:52:50.343Z,6.2
2019-03-11T12:54:50.455Z,6.1
2019-03-11T12:56:50.584Z,6.1
2019-03-11T12:58:50.667Z,6.2
2019-03-11T13:00:50.858Z,6.2
2019-03-11T13:02:50.015Z,6.3
2019-03-11T13:04:50.313Z,6.3
2019-03-11T13:06:50.487Z,6.6
2019-03-11T13:08:50.582Z,6.6
2019-03-11T13:10:50.704Z,6.55
2019-03-11T13:12:50.829Z,6.28
2019-03-11T13:14:49.864Z,5.60
2019-03-11T13:16:50.158Z,5.34
2019-03-11T13:18:50.221Z,5.23
2019-03-11T13:20:50.313Z,5.67
2019-03-11T13:22:50.355Z,6.1
2019-03-11T13:24:50.416Z,6.1
2019-03-11T13:26:50.736Z,6.1
2019-03-11T13:28:50.876Z,6.1
2019-03-11T13:30:49.948Z,6.1
2019-03-11T13:32:50.035Z,6.1
2019-03-11T13:34:50.367Z,5.93
2019-03-11T13:36:50.485Z,5.83
2019-03-11T13:38:50.540Z,5.86
2019-03-11T13:40:50.646Z,5.60
2019-03-11T13:42:50.898Z,5.23
2019-03-11T13:44:50.040Z,5.07
2019-03-11T13:46:50.223Z,4.85
2019-03-11T13:48:50.375Z,4.70
2019-03-11T13:50:50.563Z,4.69
2019-03-11T13:52:50.707Z,4.79
2019-03-11T13:54:50.836Z,4.87
2019-03-11T13:56:49.927Z,4.89
2019-03-11T13:58:50.046Z,4.83
2019-03-11T14:00:57.703Z,4.81
2019-03-11T14:02:49.893Z,4.90
2019-03-11T14:04:50.378Z,5.07
2019-03-11T14:06:50.541Z,5.10
2019-03-11T14:08:50.839Z,5.02
2019-03-11T14:10:49.897Z,4.98
2019-03-11T14:12:49.998Z,5.01
2019-03-11T14:14:50.110Z,4.97
2019-03-11T14:16:50.691Z,4.96
2019-03-11T14:18:50.007Z,4.91
2019-03-11T14:20:50.296Z,4.64
2019-03-11T14:22:50.479Z,4.39
2019-03-11T14:24:50.685Z,4.35
2019-03-11T14:26:50.226Z,4.34
2019-03-11T14:28:50.465Z,4.38
2019-03-11T14:30:51.565Z,4.52
2019-03-11T14:32:50.834Z,4.61
2019-03-11T14:34:50.506Z,4.65
2019-03-11T14:36:50.763Z,4.59
2019-03-11T14:38:49.975Z,4.46
2019-03-11T14:40:50.202Z,4.19
2019-03-11T14:42:50.490Z,4.11
2019-03-11T14:44:50.759Z,4.04
2019-03-11T14:46:50.257Z,4.01
2019-03-11T14:48:50.537Z,3.98
2019-03-11T14:50:50.820Z,3.95
2019-03-11T14:52:50.178Z,4.04
2019-03-11T14:54:50.450Z,4.10
2019-03-11T14:56:50.862Z,4.12
2019-03-11T14:58:50.135Z,4.14
2019-03-11T15:00:50.381Z,4.24
2019-03-11T15:02:50.640Z,4.26
2019-03-11T15:04:52.724Z,4.28
2019-03-11T15:06:50.145Z,4.43
2019-03-11T15:08:50.323Z,4.60
2019-03-11T15:10:50.619Z,4.89
2019-03-11T15:12:50.256Z,5.21
2019-03-11T15:14:50.604Z,5.36
2019-03-11T15:16:49.944Z,5.40
2019-03-11T15:18:50.110Z,5.31
2019-03-11T15:20:50.599Z,5.23
2019-03-11T15:22:50.846Z,4.94
2019-03-11T15:24:50.102Z,4.81
2019-03-11T15:26:50.530Z,4.60
2019-03-11T15:28:50.716Z,4.41
2019-03-11T15:30:50.029Z,4.33
2019-03-11T15:32:50.341Z,4.20
2019-03-11T15:34:49.894Z,4.15
2019-03-11T15:36:50.250Z,4.18
2019-03-11T15:38:50.449Z,4.20
2019-03-11T15:40:50.616Z,4.26
2019-03-11T15:42:49.925Z,4.29
2019-03-11T15:44:50.211Z,4.31
2019-03-11T15:46:50.043Z,4.35
2019-03-11T15:48:50.288Z,4.35
2019-03-11T15:50:50.515Z,4.32
2019-03-11T15:52:50.697Z,4.37
2019-03-11T15:54:50.092Z,4.48
2019-03-11T15:56:50.661Z,4.48
2019-03-11T15:58:50.118Z,4.47
2019-03-11T16:00:50.706Z,4.47
2019-03-11T16:02:49.976Z,4.51
2019-03-11T16:04:49.895Z,4.50
2019-03-11T16:06:50.278Z,4.48
2019-03-11T16:08:50.630Z,4.44
2019-03-11T16:10:50.815Z,4.41
2019-03-11T16:12:50.029Z,4.38
2019-03-11T16:14:50.542Z,4.36
2019-03-11T16:16:50.414Z,4.33
2019-03-11T16:18:50.843Z,4.31
2019-03-11T16:20:50.306Z,4.26
2019-03-11T16:22:50.742Z,4.22
2019-03-11T16:24:50.203Z,4.11
2019-03-11T16:26:50.750Z,3.98
2019-03-11T16:28:49.975Z,3.65
2019-03-11T16:30:50.672Z,3.22
2019-03-11T16:33:01.764Z,2.85
2019-03-11T16:34:50.269Z,2.52
2019-03-11T16:36:50.601Z,2.35
2019-03-11T16:38:49.855Z,2.24
2019-03-11T16:40:50.169Z,2.18
2019-03-11T16:42:50.378Z,2.18
2019-03-11T16:44:50.526Z,2.19
2019-03-11T16:46:49.881Z,2.11
2019-03-11T16:48:50.189Z,2.04
2019-03-11T16:50:50.398Z,1.94
2019-03-11T16:52:50.585Z,1.89
2019-03-11T16:54:49.864Z,1.84
2019-03-11T16:56:50.333Z,1.83
2019-03-11T16:58:50.572Z,1.88
2019-03-11T17:00:50.801Z,1.93
2019-03-11T17:02:49.951Z,2.00
2019-03-11T17:04:50.521Z,2.03
2019-03-11T17:06:50.822Z,2.06
2019-03-11T17:08:50.018Z,2.07
2019-03-11T17:10:50.226Z,2.04
2019-03-11T17:12:50.527Z,2.01
2019-03-11T17:14:50.636Z,2.01
2019-03-11T17:16:51.436Z,1.99
2019-03-11T17:18:50.720Z,1.99
2019-03-11T17:20:49.887Z,1.94
2019-03-11T17:22:50.184Z,1.94
2019-03-11T17:24:50.426Z,1.98
2019-03-11T17:26:50.832Z,2.01
2019-03-11T17:28:49.989Z,2.05
2019-03-11T17:30:50.286Z,2.06
2019-03-11T17:32:50.602Z,2.06
2019-03-11T17:34:50.165Z,2.07
2019-03-11T17:36:50.532Z,2.06
2019-03-11T17:38:50.818Z,2.08
2019-03-11T17:40:50.129Z,2.10
2019-03-11T17:42:51.054Z,2.12
2019-03-11T17:44:50.532Z,2.13
2019-03-11T17:46:50.814Z,2.13
2019-03-11T17:48:50.055Z,2.14
2019-03-11T17:50:50.336Z,2.13
2019-03-11T17:52:50.596Z,2.12
2019-03-11T17:54:50.833Z,2.12
2019-03-11T17:56:50.275Z,2.14
2019-03-11T17:58:50.596Z,2.17
2019-03-11T18:00:56.456Z,2.19
2019-03-11T18:02:50.752Z,2.22
2019-03-11T18:04:50.394Z,2.22
2019-03-11T18:06:50.760Z,2.19
2019-03-11T18:08:49.863Z,2.22
2019-03-11T18:10:50.008Z,2.21
2019-03-11T18:12:50.250Z,2.22
2019-03-11T18:14:50.405Z,2.22
2019-03-11T18:16:50.809Z,2.23
2019-03-11T18:18:49.978Z,2.26
2019-03-11T18:20:50.202Z,2.27
2019-03-11T18:22:50.438Z,2.27
2019-03-11T18:24:50.704Z,2.23
2019-03-11T18:26:50.203Z,2.20
2019-03-11T18:28:50.489Z,2.18
2019-03-11T18:30:52.346Z,2.16
2019-03-11T18:32:50.743Z,2.16
2019-03-11T18:34:50.449Z,2.11
2019-03-11T18:36:50.066Z,2.12
2019-03-11T18:38:50.543Z,2.13
2019-03-11T18:40:51.023Z,2.15
2019-03-11T18:42:50.433Z,2.18
2019-03-11T18:44:50.962Z,2.21
2019-03-11T18:46:50.505Z,2.26
2019-03-11T18:48:50.760Z,2.27
2019-03-11T18:50:50.322Z,2.33
2019-03-11T18:52:50.633Z,2.34
2019-03-11T18:54:50.018Z,2.39
2019-03-11T18:56:50.543Z,2.41
2019-03-11T18:58:50.159Z,2.44
2019-03-11T19:00:50.576Z,2.47
2019-03-11T19:02:50.143Z,2.49
2019-03-11T19:04:50.638Z,2.52
2019-03-11T19:06:50.215Z,2.53
2019-03-11T19:08:50.632Z,2.55
2019-03-11T19:10:50.149Z,2.58
2019-03-11T19:12:50.688Z,2.60
2019-03-11T19:14:50.034Z,2.61
2019-03-11T19:16:50.513Z,2.61
2019-03-11T19:18:50.796Z,2.62
2019-03-11T19:20:50.158Z,2.63
2019-03-11T19:22:50.669Z,2.64
2019-03-11T19:24:50.908Z,2.64
2019-03-11T19:26:50.459Z,2.64
2019-03-11T19:28:50.711Z,2.64
2019-03-11T19:30:50.201Z,2.64
2019-03-11T19:32:50.576Z,2.63
2019-03-11T19:34:50.437Z,2.62
2019-03-11T19:36:50.897Z,2.62
2019-03-11T19:38:50.198Z,2.62
2019-03-11T19:40:50.579Z,2.63
2019-03-11T19:42:50.924Z,2.65
2019-03-11T19:44:50.251Z,2.67
2019-03-11T19:46:50.899Z,2.67
2019-03-11T19:48:50.430Z,2.66
2019-03-11T19:50:50.865Z,2.65
2019-03-11T19:53:00.183Z,2.65
2019-03-11T19:54:50.570Z,2.68
2019-03-11T19:56:50.231Z,2.72
2019-03-11T19:58:50.657Z,2.75
2019-03-11T20:00:50.034Z,2.78
2019-03-11T20:02:50.479Z,2.79
2019-03-11T20:04:50.231Z,2.81
2019-03-11T20:06:50.640Z,2.85
2019-03-11T20:08:50.100Z,2.86
2019-03-11T20:10:50.484Z,2.88
2019-03-11T20:12:51.077Z,2.89
2019-03-11T20:14:50.508Z,2.95
2019-03-11T20:16:50.276Z,2.97
2019-03-11T20:18:50.639Z,3.00
2019-03-11T20:20:51.521Z,3.09
2019-03-11T20:22:50.970Z,3.23
2019-03-11T20:24:50.315Z,3.28
2019-03-11T20:26:50.766Z,3.33
2019-03-11T20:28:50.156Z,3.36
2019-03-11T20:30:50.511Z,3.48
2019-03-11T20:32:50.976Z,3.49
2019-03-11T20:34:50.761Z,3.54
2019-03-11T20:36:50.494Z,3.59
2019-03-11T20:38:50.925Z,3.61
2019-03-11T20:40:50.329Z,3.64
2019-03-11T20:42:50.895Z,3.66
2019-03-11T20:44:50.364Z,3.68
2019-03-11T20:46:51.087Z,3.68
2019-03-11T20:48:50.491Z,3.67
2019-03-11T20:50:50.765Z,3.66
2019-03-11T20:52:50.385Z,3.65
2019-03-11T20:54:50.769Z,3.63
2019-03-11T20:56:50.370Z,3.63
2019-03-11T20:58:50.670Z,3.67
2019-03-11T21:00:50.105Z,3.68
2019-03-11T21:02:50.764Z,3.72
2019-03-11T21:04:50.805Z,3.72
2019-03-11T21:06:50.450Z,3.70
2019-03-11T21:08:51.012Z,3.65
2019-03-11T21:10:50.410Z,3.56
2019-03-11T21:12:50.899Z,3.39
2019-03-11T21:14:50.507Z,3.29
2019-03-11T21:16:50.068Z,3.17
2019-03-11T21:18:50.460Z,3.11
2019-03-11T21:21:05.806Z,3.09
2019-03-11T21:22:51.115Z,2.87
2019-03-11T21:25:00.950Z,2.75
2019-03-11T21:26:50.431Z,2.69
2019-03-11T21:28:50.887Z,2.63
2019-03-11T21:30:50.496Z,2.61
2019-03-11T21:32:51.061Z,2.59
2019-03-11T21:34:51.268Z,2.59
2019-03-11T21:36:52.163Z,2.58
2019-03-11T21:38:50.705Z,2.56
2019-03-11T21:40:50.572Z,2.58
2019-03-11T21:42:51.476Z,2.61
2019-03-11T21:44:50.163Z,2.61
2019-03-11T21:46:50.673Z,2.55
2019-03-11T21:48:50.075Z,2.54
2019-03-11T21:50:50.671Z,2.46
2019-03-11T21:52:50.377Z,2.40
2019-03-11T21:54:50.882Z,2.35
2019-03-11T21:56:50.416Z,2.34
2019-03-11T21:58:51.416Z,2.37
2019-03-11T22:00:50.663Z,2.40
2019-03-11T22:02:49.950Z,2.41
2019-03-11T22:04:50.565Z,2.46
2019-03-11T22:06:49.948Z,2.48
2019-03-11T22:08:50.167Z,2.54
2019-03-11T22:10:50.342Z,2.54
2019-03-11T22:12:50.604Z,2.60
2019-03-11T22:14:50.937Z,2.79
2019-03-11T22:16:50.415Z,2.86
2019-03-11T22:18:50.848Z,2.96
2019-03-11T22:20:50.046Z,2.99
2019-03-11T22:22:50.375Z,3.06
2019-03-11T22:24:50.559Z,3.10
2019-03-11T22:26:50.017Z,3.16
2019-03-11T22:28:50.211Z,3.18
2019-03-11T22:30:50.438Z,3.16
2019-03-11T22:32:50.663Z,3.15
2019-03-11T22:34:50.372Z,3.15
2019-03-11T22:36:50.703Z,3.15
2019-03-11T22:38:50.046Z,3.14
2019-03-11T22:40:50.431Z,3.10
2019-03-11T22:42:50.834Z,3.06
2019-03-11T22:44:49.968Z,3.04
2019-03-11T22:46:50.387Z,3.00
2019-03-11T22:48:50.604Z,2.98
2019-03-11T22:50:49.960Z,2.95
2019-03-11T22:52:50.294Z,2.92
2019-03-11T22:54:50.596Z,2.92
2019-03-11T22:56:50.027Z,2.90
2019-03-11T22:58:50.251Z,2.88
2019-03-11T23:00:50.559Z,2.88
2019-03-11T23:02:50.852Z,2.88
2019-03-11T23:04:50.625Z,2.87
2019-03-11T23:06:49.960Z,2.88
2019-03-11T23:08:50.224Z,2.88
2019-03-11T23:10:50.503Z,2.86
2019-03-11T23:12:50.725Z,2.88
2019-03-11T23:14:49.905Z,2.88
2019-03-11T23:16:50.274Z,2.89
2019-03-11T23:18:50.439Z,2.89
2019-03-11T23:20:50.578Z,2.89
2019-03-11T23:22:50.724Z,2.89
2019-03-11T23:24:49.981Z,2.89
2019-03-11T23:26:50.428Z,2.92
2019-03-11T23:28:50.691Z,2.95
2019-03-11T23:30:49.906Z,2.99
2019-03-11T23:32:50.142Z,3.08
2019-03-11T23:34:50.666Z,3.12
2019-03-11T23:36:49.984Z,3.15
2019-03-11T23:38:50.332Z,3.16
2019-03-11T23:40:50.535Z,3.22
2019-03-11T23:42:50.710Z,3.23
2019-03-11T23:44:49.889Z,3.27
2019-03-11T23:46:50.242Z,3.29
2019-03-11T23:48:50.497Z,3.29
2019-03-11T23:50:50.740Z,3.31
2019-03-11T23:52:50.045Z,3.32
2019-03-11T23:54:50.308Z,3.34
2019-03-11T23:56:50.667Z,3.33
2019-03-11T23:58:49.901Z,3.34
